Main page
METAR-TAF:

METAR-TAF

Airports :

Mendoza, Argentina

Governor Francisco Gabrielli International Airport

latitude: 32-50S, longitude: 068-47W, elevation: 705 m

Current weather observation

The report was made 56 minutes ago, at 11:00 UTC
Wind 6 kt from the Southwest
Temperature 18°C
Humidity 37%
Pressure 1009 hPa
Visibility 10 km or more
no clouds below 1500 m and no cumulonimbus

METAR: SAME 201100Z 23006KT CAVOK 18/03 Q1009

Time: 08:56 (11:56 UTC)

Forecast

The report was made 6 hours and 56 minutes ago, at 05:00 UTC
Forecast valid from 20 at 06 UTC to 21 at 06 UTC
Wind 10 kt from the Southeast
Visibility 10 km or more
no clouds below 1500 m and no cumulonimbus
Becoming
from 20 at 18 UTC to 20 at 20 UTC
Wind 15 kt from the South/Southeast
Visibility: 7000 m
Broken clouds at a height of 3000 ft
Few clouds at a height of 4000 ft, Cumulonimbus.
thunderstorm in vicinity, rain showers

TAF: SAME 200500Z 2006/2106 14010KT CAVOK TX30/2020Z TN15/2010Z BECMG 2018/2020 16015KT 7000 VCTS SHRA BKN030 FEW040CB

Weather observations and forecasts of more than 4000 airports (METAR and TAF reports).

The available stations are represented by yellow and red dots on the map.

Hover mouse over dot to see the name of the station.

Then click to see weather observations and forecasts.

To change the map : click on the green buttons with a black cross to zoom in, on the green button with a dash to zoom out, or on the green arrows for adjacent maps.


METAR-TAF: